createdAt,value
2022-09-23T00:00:23.063Z,7.22
2022-09-23T00:03:49.211Z,7.13
2022-09-23T00:07:10.756Z,7.28
2022-09-23T00:10:35.617Z,7.55
2022-09-23T00:13:59.449Z,6.88
2022-09-23T00:17:23.621Z,25.90
2022-09-23T00:20:45.179Z,12.43
2022-09-23T00:24:08.116Z,7.28
2022-09-23T00:27:33.944Z,6.82
2022-09-23T00:30:55.856Z,6.80
2022-09-23T00:34:17.437Z,6.43
2022-09-23T00:37:39.018Z,7.15
2022-09-23T00:41:00.861Z,6.30
2022-09-23T00:44:50.189Z,6.78
2022-09-23T00:48:23.514Z,7.30
2022-09-23T00:51:54.545Z,6.65
2022-09-23T00:55:33.082Z,8.13
2022-09-23T00:58:54.661Z,32.15
2022-09-23T01:02:18.560Z,7.97
2022-09-23T01:05:42.936Z,7.15
2022-09-23T01:09:04.638Z,6.75
2022-09-23T01:12:48.008Z,7.55
2022-09-23T01:16:35.061Z,7.45
2022-09-23T01:20:30.420Z,7.28
2022-09-23T01:24:13.139Z,6.80
2022-09-23T01:27:34.631Z,7.72
2022-09-23T01:31:08.384Z,7.55
2022-09-23T01:34:33.229Z,7.55
2022-09-23T01:38:21.738Z,7.18
2022-09-23T01:41:53.177Z,7.50
2022-09-23T01:45:17.854Z,7.30
2022-09-23T01:48:46.683Z,6.97
2022-09-23T01:52:26.084Z,7.10
2022-09-23T01:55:58.964Z,6.65
2022-09-23T01:59:49.883Z,6.82
2022-09-23T02:03:16.939Z,6.72
2022-09-23T02:06:44.046Z,7.22
2022-09-23T02:10:24.226Z,6.93
2022-09-23T02:13:51.932Z,6.88
2022-09-23T02:17:23.876Z,7.20
2022-09-23T02:20:47.537Z,6.63
2022-09-23T02:24:17.145Z,6.78
2022-09-23T02:27:50.126Z,6.75
2022-09-23T02:31:37.265Z,6.70
2022-09-23T02:35:26.248Z,6.95
2022-09-23T02:38:57.867Z,6.63
2022-09-23T02:42:24.907Z,6.63
2022-09-23T02:45:49.531Z,6.28
2022-09-23T02:49:19.929Z,6.68
2022-09-23T02:52:44.203Z,6.60
2022-09-23T02:56:21.071Z,6.72
2022-09-23T02:59:43.065Z,6.20
2022-09-23T03:03:29.787Z,6.67
2022-09-23T03:07:02.842Z,6.83
2022-09-23T03:10:55.424Z,6.40
2022-09-23T03:14:23.012Z,6.30
2022-09-23T03:17:54.694Z,5.97
2022-09-23T03:21:22.059Z,6.90
2022-09-23T03:24:45.684Z,6.55
2022-09-23T03:28:10.449Z,6.45
2022-09-23T03:31:36.426Z,6.57
2022-09-23T03:35:00.996Z,5.87
2022-09-23T03:38:27.685Z,5.77
2022-09-23T03:41:53.071Z,5.93
2022-09-23T03:45:19.085Z,5.07
2022-09-23T03:48:40.812Z,5.27
2022-09-23T03:52:03.476Z,5.57
2022-09-23T03:55:29.527Z,5.85
2022-09-23T03:58:51.098Z,5.67
2022-09-23T04:02:12.723Z,5.65
2022-09-23T04:05:34.267Z,5.60
2022-09-23T04:08:58.585Z,5.57
2022-09-23T04:12:27.550Z,5.07
2022-09-23T04:15:50.359Z,5.15
2022-09-23T04:19:12.900Z,6.00
2022-09-23T04:22:35.106Z,6.37
2022-09-23T04:26:01.480Z,5.57
2022-09-23T04:29:26.852Z,5.60
2022-09-23T04:32:51.985Z,5.70
2022-09-23T04:36:15.748Z,5.50
2022-09-23T04:39:37.270Z,5.72
2022-09-23T04:42:59.628Z,5.23
2022-09-23T04:46:21.182Z,5.53
2022-09-23T04:49:42.752Z,5.17
2022-09-23T04:53:06.937Z,6.00
2022-09-23T04:56:33.337Z,5.40
2022-09-23T04:59:57.527Z,5.47
2022-09-23T05:03:19.129Z,5.97
2022-09-23T05:06:43.947Z,5.53
2022-09-23T05:10:06.145Z,6.07
2022-09-23T05:13:30.447Z,5.60
2022-09-23T05:16:52.459Z,5.43
2022-09-23T05:20:14.442Z,6.15
2022-09-23T05:23:37.310Z,5.65
2022-09-23T05:27:00.903Z,5.47
2022-09-23T05:30:25.013Z,6.35
2022-09-23T05:33:49.148Z,5.97
2022-09-23T05:37:10.716Z,5.78
2022-09-23T05:40:32.311Z,5.60
2022-09-23T05:43:57.927Z,5.93
2022-09-23T05:47:19.429Z,5.60
2022-09-23T05:50:51.970Z,5.80
2022-09-23T05:54:13.560Z,6.68
2022-09-23T05:57:37.265Z,6.90
2022-09-23T06:01:03.629Z,5.88
2022-09-23T06:04:25.190Z,5.82
2022-09-23T06:07:49.631Z,6.55
2022-09-23T06:11:14.024Z,6.05
2022-09-23T06:14:35.757Z,5.60
2022-09-23T06:17:59.956Z,5.30
2022-09-23T06:21:21.535Z,5.03
2022-09-23T06:24:43.211Z,5.10
2022-09-23T06:28:04.996Z,4.53
2022-09-23T06:31:26.648Z,4.47
2022-09-23T06:34:51.958Z,5.93
2022-09-23T06:38:13.765Z,5.13
2022-09-23T06:41:35.304Z,5.57
2022-09-23T06:44:57.130Z,5.70
2022-09-23T06:48:20.917Z,6.38
2022-09-23T06:51:44.917Z,6.25
2022-09-23T06:55:11.663Z,5.53
2022-09-23T06:58:35.187Z,6.50
2022-09-23T07:01:59.114Z,6.05
2022-09-23T07:05:22.369Z,5.88
2022-09-23T07:08:51.276Z,4.70
2022-09-23T07:12:17.623Z,4.82
2022-09-23T07:15:39.171Z,5.10
2022-09-23T07:19:01.199Z,4.80
2022-09-23T07:22:26.555Z,3.95
2022-09-23T07:25:49.543Z,5.28
2022-09-23T07:29:15.895Z,3.60
2022-09-23T07:32:47.447Z,3.45
2022-09-23T07:36:13.854Z,3.95
2022-09-23T07:39:37.773Z,3.47
2022-09-23T07:43:05.334Z,3.53
2022-09-23T07:46:29.991Z,3.33
2022-09-23T07:49:54.121Z,3.40
2022-09-23T07:53:16.061Z,3.28
2022-09-23T07:56:37.978Z,3.58
2022-09-23T08:00:01.063Z,3.67
2022-09-23T08:03:24.876Z,3.45
2022-09-23T08:06:49.001Z,3.30
2022-09-23T08:10:10.489Z,3.60
2022-09-23T08:13:34.783Z,2.88
2022-09-23T08:16:57.561Z,3.33
2022-09-23T08:20:43.663Z,3.40
2022-09-23T08:24:13.563Z,3.30
2022-09-23T08:27:35.111Z,3.42
2022-09-23T08:30:56.738Z,2.78
2022-09-23T08:34:20.004Z,3.00
2022-09-23T08:37:41.503Z,3.20
2022-09-23T08:41:23.247Z,3.40
2022-09-23T08:45:00.781Z,2.78
2022-09-23T08:48:32.706Z,2.55
2022-09-23T08:51:55.785Z,2.75
2022-09-23T08:55:19.573Z,2.40
2022-09-23T08:58:43.986Z,2.40
2022-09-23T09:02:18.599Z,2.33
2022-09-23T09:05:41.015Z,2.90
2022-09-23T09:09:04.857Z,2.53
2022-09-23T09:12:48.099Z,2.63
2022-09-23T09:17:00.066Z,2.40
2022-09-23T09:20:36.120Z,2.35
2022-09-23T09:24:00.437Z,2.63
2022-09-23T09:27:23.982Z,2.38
2022-09-23T09:30:48.845Z,2.38
2022-09-23T09:34:34.821Z,2.70
2022-09-23T09:37:56.658Z,14.25
2022-09-23T09:41:21.348Z,4.45
2022-09-23T09:44:42.903Z,4.85
2022-09-23T09:48:17.902Z,2.53
2022-09-23T09:51:43.009Z,2.55
2022-09-23T09:55:13.568Z,2.92
2022-09-23T09:58:48.576Z,2.90
2022-09-23T10:02:21.638Z,3.05
2022-09-23T10:05:46.152Z,3.28
2022-09-23T10:09:07.744Z,4.03
2022-09-23T10:12:49.899Z,3.20
2022-09-23T10:16:15.575Z,2.90
2022-09-23T10:19:44.748Z,2.95
2022-09-23T10:23:14.270Z,2.85
2022-09-23T10:26:44.802Z,3.30
2022-09-23T10:30:25.304Z,2.60
2022-09-23T10:33:54.786Z,2.92
2022-09-23T10:37:30.087Z,3.03
2022-09-23T10:41:13.130Z,3.08
2022-09-23T10:45:13.121Z,2.45
2022-09-23T10:48:43.205Z,2.90
2022-09-23T10:52:32.641Z,3.20
2022-09-23T10:56:18.991Z,3.25
2022-09-23T10:59:50.554Z,3.17
2022-09-23T11:03:36.300Z,2.90
2022-09-23T11:07:17.230Z,2.72
2022-09-23T11:11:00.488Z,2.58
2022-09-23T11:15:07.582Z,2.33
2022-09-23T11:18:40.762Z,2.97
2022-09-23T11:22:15.866Z,2.55
2022-09-23T11:25:54.747Z,2.17
2022-09-23T11:29:51.805Z,2.30
2022-09-23T11:33:39.295Z,2.90
2022-09-23T11:37:15.872Z,3.67
2022-09-23T11:40:46.454Z,2.60
2022-09-23T11:44:28.458Z,2.92
2022-09-23T11:48:03.246Z,2.80
2022-09-23T11:51:27.079Z,2.72
2022-09-23T11:54:54.538Z,2.75
2022-09-23T11:58:37.369Z,2.72
2022-09-23T12:02:20.060Z,15.15
2022-09-23T12:05:47.440Z,3.50
2022-09-23T12:09:57.788Z,3.35
2022-09-23T12:13:22.568Z,2.40
2022-09-23T12:17:08.772Z,2.28
2022-09-23T12:20:45.410Z,3.38
2022-09-23T12:24:10.822Z,4.22
2022-09-23T12:27:40.308Z,3.60
2022-09-23T12:31:04.610Z,3.00
2022-09-23T12:34:37.801Z,2.83
2022-09-23T12:38:03.907Z,2.70
2022-09-23T12:41:29.677Z,3.40
2022-09-23T12:45:32.772Z,4.82
2022-09-23T12:48:58.046Z,7.13
2022-09-23T12:52:19.629Z,7.03
2022-09-23T12:55:51.613Z,3.92
2022-09-23T12:59:16.163Z,2.75
2022-09-23T13:02:39.492Z,2.40
2022-09-23T13:06:20.286Z,2.80
2022-09-23T13:09:46.981Z,2.67
2022-09-23T13:13:19.955Z,2.55
2022-09-23T13:16:45.886Z,3.22
2022-09-23T13:20:19.696Z,20.98
2022-09-23T13:24:13.100Z,3.10
2022-09-23T13:27:36.208Z,2.45
2022-09-23T13:31:00.771Z,2.42
2022-09-23T13:34:30.552Z,2.58
2022-09-23T13:37:55.254Z,2.40
2022-09-23T13:41:19.299Z,3.00
2022-09-23T13:44:44.138Z,2.67
2022-09-23T13:48:10.987Z,3.20
2022-09-23T13:51:36.452Z,2.60
2022-09-23T13:54:58.144Z,2.50
2022-09-23T13:58:24.378Z,2.58
2022-09-23T14:01:47.173Z,2.78
2022-09-23T14:05:21.669Z,3.30
2022-09-23T14:08:51.846Z,2.60
2022-09-23T14:12:13.530Z,3.00
2022-09-23T14:15:36.963Z,2.78
2022-09-23T14:19:00.035Z,2.83
2022-09-23T14:22:28.787Z,2.90
2022-09-23T14:25:54.595Z,2.70
2022-09-23T14:29:42.569Z,2.50
2022-09-23T14:33:11.882Z,2.30
2022-09-23T14:36:54.943Z,3.10
2022-09-23T14:40:20.726Z,2.65
2022-09-23T14:44:18.601Z,4.50
2022-09-23T14:47:45.788Z,2.60
2022-09-23T14:51:13.222Z,8.48
2022-09-23T14:54:44.697Z,3.15
2022-09-23T14:58:16.614Z,2.92
2022-09-23T15:01:39.148Z,3.72
2022-09-23T15:05:15.673Z,2.60
2022-09-23T15:08:37.264Z,2.47
2022-09-23T15:12:20.721Z,2.25
2022-09-23T15:15:43.061Z,3.30
2022-09-23T15:19:05.165Z,3.28
2022-09-23T15:22:27.292Z,2.33
2022-09-23T15:25:51.899Z,2.58
2022-09-23T15:29:13.567Z,2.70
2022-09-23T15:32:38.089Z,2.50
2022-09-23T15:36:03.266Z,2.50
2022-09-23T15:39:35.806Z,2.10
2022-09-23T15:43:00.658Z,2.20
2022-09-23T15:46:24.149Z,2.70
2022-09-23T15:49:47.198Z,3.83
2022-09-23T15:53:18.333Z,3.03
2022-09-23T15:56:42.335Z,2.78
2022-09-23T16:00:12.227Z,2.30
2022-09-23T16:03:33.989Z,2.58
2022-09-23T16:06:59.125Z,2.90
2022-09-23T16:10:23.372Z,3.20
2022-09-23T16:13:45.156Z,2.72
2022-09-23T16:17:07.717Z,3.28
2022-09-23T16:20:30.356Z,5.35
2022-09-23T16:23:55.322Z,4.55
2022-09-23T16:27:20.746Z,3.17
2022-09-23T16:30:42.243Z,3.20
2022-09-23T16:34:04.126Z,3.10
2022-09-23T16:37:25.807Z,3.42
2022-09-23T16:40:47.506Z,2.85
2022-09-23T16:44:10.698Z,4.75
2022-09-23T16:47:32.452Z,3.53
2022-09-23T16:50:56.451Z,3.40
2022-09-23T16:54:19.302Z,3.75
2022-09-23T16:57:43.474Z,3.83
2022-09-23T17:01:31.747Z,3.72
2022-09-23T17:04:53.379Z,3.97
2022-09-23T17:08:16.933Z,3.80
2022-09-23T17:11:41.356Z,4.38
2022-09-23T17:15:07.493Z,4.72
2022-09-23T17:18:29.792Z,4.05
2022-09-23T17:21:53.266Z,4.20
2022-09-23T17:25:19.540Z,4.13
2022-09-23T17:28:43.214Z,3.83
2022-09-23T17:32:04.968Z,4.07
2022-09-23T17:35:26.530Z,4.40
2022-09-23T17:38:48.952Z,4.95
2022-09-23T17:42:13.312Z,4.63
2022-09-23T17:45:43.025Z,3.72
2022-09-23T17:49:08.630Z,3.70
2022-09-23T17:52:32.433Z,4.28
2022-09-23T17:55:55.772Z,5.10
2022-09-23T17:59:19.658Z,4.85
2022-09-23T18:02:41.218Z,5.45
2022-09-23T18:06:11.160Z,5.50
2022-09-23T18:09:32.717Z,6.03
2022-09-23T18:12:57.234Z,6.10
2022-09-23T18:16:20.445Z,6.72
2022-09-23T18:19:42.538Z,6.88
2022-09-23T18:23:04.144Z,6.75
2022-09-23T18:26:26.414Z,6.90
2022-09-23T18:29:52.850Z,7.93
2022-09-23T18:33:15.283Z,8.15
2022-09-23T18:36:37.647Z,7.32
2022-09-23T18:40:01.799Z,7.45
2022-09-23T18:43:37.272Z,8.90
2022-09-23T18:47:03.389Z,9.23
2022-09-23T18:50:40.545Z,10.60
2022-09-23T18:54:06.646Z,9.55
2022-09-23T18:57:30.449Z,9.55
2022-09-23T19:00:53.227Z,8.82
2022-09-23T19:04:17.145Z,9.27
2022-09-23T19:07:38.673Z,9.88
2022-09-23T19:11:02.805Z,9.50
2022-09-23T19:14:24.545Z,7.95
2022-09-23T19:17:48.654Z,8.45
2022-09-23T19:21:13.992Z,7.93
2022-09-23T19:24:35.577Z,8.07
2022-09-23T19:27:59.322Z,7.15
2022-09-23T19:31:26.668Z,7.78
2022-09-23T19:34:50.554Z,9.32
2022-09-23T19:38:12.221Z,9.07
2022-09-23T19:41:35.442Z,9.30
2022-09-23T19:44:59.389Z,9.02
2022-09-23T19:48:21.089Z,9.18
2022-09-23T19:51:46.798Z,9.30
2022-09-23T19:55:11.135Z,9.50
2022-09-23T19:58:35.525Z,8.63
2022-09-23T20:01:57.064Z,8.93
2022-09-23T20:05:20.920Z,8.30
2022-09-23T20:08:45.784Z,8.55
2022-09-23T20:12:07.322Z,8.38
2022-09-23T20:15:36.578Z,9.02
2022-09-23T20:19:00.965Z,10.90
2022-09-23T20:22:26.680Z,8.38
2022-09-23T20:26:16.733Z,8.55
2022-09-23T20:29:43.307Z,8.85
2022-09-23T20:33:09.648Z,8.98
2022-09-23T20:36:31.861Z,8.77
2022-09-23T20:39:53.424Z,9.23
2022-09-23T20:43:18.199Z,10.65
2022-09-23T20:46:48.258Z,8.43
2022-09-23T20:50:10.286Z,8.52
2022-09-23T20:53:32.788Z,9.52
2022-09-23T20:57:00.473Z,16.10
2022-09-23T21:00:24.561Z,11.60
2022-09-23T21:03:48.242Z,8.60
2022-09-23T21:07:12.451Z,8.70
2022-09-23T21:10:36.023Z,7.82
2022-09-23T21:14:01.521Z,8.68
2022-09-23T21:17:27.964Z,8.73
2022-09-23T21:20:59.925Z,8.30
2022-09-23T21:28:03.744Z,14.65
2022-09-23T21:31:28.174Z,11.50
2022-09-23T21:34:50.380Z,9.63
2022-09-23T21:38:11.896Z,9.18
2022-09-23T21:41:36.539Z,9.57
2022-09-23T21:44:58.026Z,11.35
2022-09-23T21:48:19.581Z,10.60
2022-09-23T21:51:41.638Z,10.50
2022-09-23T21:55:05.514Z,11.07
2022-09-23T21:58:28.521Z,10.10
2022-09-23T22:01:54.323Z,9.38
2022-09-23T22:05:18.877Z,9.68
2022-09-23T22:08:43.105Z,8.93
2022-09-23T22:12:13.102Z,9.15
2022-09-23T22:15:37.541Z,8.95
2022-09-23T22:19:05.255Z,9.05
2022-09-23T22:22:29.134Z,8.97
2022-09-23T22:26:00.673Z,9.23
2022-09-23T22:29:42.777Z,8.70
2022-09-23T22:33:07.128Z,8.70
2022-09-23T22:36:28.690Z,9.13
2022-09-23T22:39:50.197Z,7.97
2022-09-23T22:43:14.041Z,8.55
2022-09-23T22:46:35.600Z,9.30
2022-09-23T22:49:59.267Z,8.93
2022-09-23T22:53:21.073Z,8.82
2022-09-23T22:56:45.094Z,9.02
2022-09-23T23:00:07.862Z,8.57
2022-09-23T23:03:30.524Z,8.38
2022-09-23T23:06:55.710Z,8.27
2022-09-23T23:10:17.439Z,8.70
2022-09-23T23:13:44.043Z,8.90
2022-09-23T23:17:08.840Z,9.70
2022-09-23T23:20:32.973Z,8.88
2022-09-23T23:23:56.819Z,9.02
2022-09-23T23:27:18.361Z,8.80
2022-09-23T23:30:47.712Z,8.40
2022-09-23T23:34:20.314Z,7.70
2022-09-23T23:37:44.158Z,8.45
2022-09-23T23:41:11.080Z,9.70
2022-09-23T23:44:35.071Z,9.88
2022-09-23T23:48:01.359Z,9.60
2022-09-23T23:51:26.539Z,8.70
2022-09-23T23:54:48.051Z,9.10
2022-09-23T23:58:09.751Z,9.52
